Time;durP1;ratioP1;P1;durP2;ratioP2;P2;SDS_P1;SDS_P2;PMS_P1;PMS_P2;Temp;Humidity;BMP_temperature;BMP_pressure;BME280_temperature;BME280_humidity;BME280_pressure;Samples;Min_cycle;Max_cycle;Signal;HPM_P1;HPM_P2
2022/01/22 00:00:19;;;;;;;25.73;22.60;;;3.90;99.90;;;;;;5060668;28;20462;-61
2022/01/22 00:02:47;;;;;;;27.97;21.80;;;3.90;99.90;;;;;;5059666;28;20516;-60
2022/01/22 00:05:18;;;;;;;22.50;20.10;;;3.80;99.90;;;;;;5058544;28;20454;-61
2022/01/22 00:07:50;;;;;;;27.40;23.80;;;3.80;99.90;;;;;;5059103;28;20510;-61
2022/01/22 00:10:19;;;;;;;26.13;21.97;;;3.90;99.90;;;;;;5059061;28;21004;-60
2022/01/22 00:13:07;;;;;;;24.30;21.70;;;3.90;99.90;;;;;;5059126;28;20461;-61
2022/01/22 00:15:35;;;;;;;29.30;23.27;;;3.80;99.90;;;;;;5059039;28;20477;-61
2022/01/22 00:18:04;;;;;;;28.40;21.47;;;3.80;99.90;;;;;;5061033;28;20462;-60
2022/01/22 00:20:33;;;;;;;25.33;20.90;;;3.80;99.90;;;;;;5058526;28;20946;-60
2022/01/22 00:23:02;;;;;;;26.13;22.60;;;3.80;99.90;;;;;;5059045;28;21510;-60
2022/01/22 00:25:32;;;;;;;23.60;20.63;;;3.80;99.90;;;;;;5058677;28;20494;-59
2022/01/22 00:28:00;;;;;;;24.83;22.20;;;3.90;99.90;;;;;;5058666;28;20437;-61
2022/01/22 00:30:27;;;;;;;23.87;20.30;;;3.80;99.90;;;;;;5052603;28;20466;-61
2022/01/22 00:32:57;;;;;;;28.40;23.17;;;3.90;99.90;;;;;;5058689;28;20563;-61
2022/01/22 00:35:24;;;;;;;28.13;23.13;;;3.80;99.90;;;;;;5058556;28;20457;-61
2022/01/22 00:37:54;;;;;;;28.57;23.67;;;3.80;99.90;;;;;;5058627;28;20801;-61
2022/01/22 00:40:21;;;;;;;26.87;23.47;;;3.80;99.90;;;;;;5056545;28;20458;-61
2022/01/22 00:42:49;;;;;;;30.93;23.53;;;3.80;99.90;;;;;;5056870;28;20891;-61
2022/01/22 00:45:19;;;;;;;27.97;23.50;;;3.80;99.90;;;;;;5058147;28;20459;-60
2022/01/22 00:47:46;;;;;;;34.37;24.70;;;3.80;99.90;;;;;;5058155;28;20454;-61
2022/01/22 00:50:16;;;;;;;30.00;24.63;;;3.80;99.90;;;;;;5056663;28;20429;-61
2022/01/22 00:52:44;;;;;;;27.83;22.67;;;3.80;99.90;;;;;;5058599;28;20530;-61
2022/01/22 00:55:13;;;;;;;25.37;22.03;;;3.80;99.90;;;;;;5056623;28;20462;-61
2022/01/22 00:57:41;;;;;;;27.13;22.57;;;3.80;99.90;;;;;;5058291;28;20465;-61
2022/01/22 01:00:11;;;;;;;25.67;22.27;;;3.80;99.90;;;;;;5057660;28;20473;-61
2022/01/22 01:02:38;;;;;;;22.80;20.30;;;3.80;99.90;;;;;;5057163;28;20454;-60
2022/01/22 01:05:07;;;;;;;28.43;21.43;;;3.80;99.90;;;;;;5052248;28;20897;-61
2022/01/22 01:07:34;;;;;;;26.80;20.63;;;3.80;99.90;;;;;;5058511;28;20753;-61
2022/01/22 01:10:04;;;;;;;29.17;21.70;;;3.80;99.90;;;;;;5058680;28;20763;-58
2022/01/22 01:12:33;;;;;;;27.43;20.13;;;3.80;99.90;;;;;;5058587;28;20483;-61
2022/01/22 01:15:14;;;;;;;21.90;18.97;;;3.80;99.90;;;;;;5058781;28;20463;-61
2022/01/22 01:18:03;;;;;;;26.53;22.63;;;3.80;99.90;;;;;;5050191;28;20462;-61
2022/01/22 01:34:30;;;;;;;23.43;18.83;;;3.80;99.90;;;;;;5058226;28;20495;-61
2022/01/22 01:36:57;;;;;;;21.37;18.43;;;3.80;99.90;;;;;;5062484;28;20462;-61
2022/01/22 01:39:28;;;;;;;20.07;16.97;;;3.80;99.90;;;;;;5058166;28;20457;-61
2022/01/22 01:42:00;;;;;;;20.47;17.07;;;3.80;99.90;;;;;;5055534;28;20538;-60
2022/01/22 01:44:29;;;;;;;20.60;17.50;;;3.80;99.90;;;;;;5038274;28;20506;-61
2022/01/22 01:47:00;;;;;;;21.77;17.57;;;3.70;99.90;;;;;;5038466;28;20891;-61
2022/01/22 01:49:28;;;;;;;19.00;16.87;;;3.80;99.90;;;;;;5038119;28;20471;-60
2022/01/22 01:51:59;;;;;;;18.40;16.47;;;3.80;99.90;;;;;;5038127;28;20578;-61
2022/01/22 01:54:34;;;;;;;21.80;17.10;;;3.80;99.90;;;;;;5038281;28;20467;-60
2022/01/22 01:59:50;;;;;;;18.77;15.57;;;3.80;99.90;;;;;;5037680;28;20534;-61
2022/01/22 02:02:17;;;;;;;16.77;14.97;;;3.70;99.90;;;;;;5037906;28;20425;-61
2022/01/22 02:04:45;;;;;;;17.60;15.53;;;3.80;99.90;;;;;;5038154;28;20467;-61
2022/01/22 02:07:12;;;;;;;16.30;14.60;;;3.70;99.90;;;;;;5059293;28;20468;-61
2022/01/22 02:09:40;;;;;;;17.13;15.33;;;3.70;99.90;;;;;;5077576;28;20515;-61
2022/01/22 02:12:13;;;;;;;15.27;13.17;;;3.70;99.90;;;;;;5078103;28;20584;-61
2022/01/22 02:25:46;;;;;;;14.50;13.10;;;3.70;99.90;;;;;;5057108;28;20580;-61
2022/01/22 02:28:15;;;;;;;14.33;12.83;;;3.70;99.90;;;;;;5057631;28;20768;-61
2022/01/22 02:30:46;;;;;;;14.87;13.30;;;3.70;99.90;;;;;;5056574;28;20469;-61
2022/01/22 02:33:28;;;;;;;13.00;11.70;;;3.70;99.90;;;;;;5056827;28;21007;-61
2022/01/22 02:36:01;;;;;;;14.00;12.50;;;3.70;99.90;;;;;;5065265;28;20432;-61
2022/01/22 02:38:36;;;;;;;13.67;12.27;;;3.60;99.90;;;;;;5048656;28;20467;-60
2022/01/22 02:41:13;;;;;;;14.30;12.60;;;3.60;99.90;;;;;;5037476;28;20471;-61
2022/01/22 02:43:39;;;;;;;18.23;12.93;;;3.70;99.90;;;;;;5036343;28;20553;-61
2022/01/22 02:46:07;;;;;;;14.70;13.10;;;3.60;99.90;;;;;;5037168;28;20875;-61
2022/01/22 02:48:35;;;;;;;14.03;12.53;;;3.70;99.90;;;;;;5037704;28;20471;-61
2022/01/22 02:51:02;;;;;;;13.50;12.10;;;3.60;99.90;;;;;;5037352;28;20869;-60
2022/01/22 02:53:30;;;;;;;13.60;12.20;;;3.60;99.90;;;;;;5036363;28;20798;-61
2022/01/22 02:55:57;;;;;;;14.90;13.30;;;3.70;99.90;;;;;;5036898;28;20463;-61
2022/01/22 02:58:27;;;;;;;17.27;13.23;;;3.60;99.90;;;;;;5037367;28;20464;-61
2022/01/22 03:00:54;;;;;;;18.63;15.60;;;3.60;99.90;;;;;;5036649;28;20464;-61
2022/01/22 03:03:21;;;;;;;20.40;16.13;;;3.70;99.90;;;;;;5037006;28;20459;-61
2022/01/22 03:05:48;;;;;;;19.17;16.50;;;3.60;99.90;;;;;;5036911;28;20554;-61
2022/01/22 03:08:15;;;;;;;17.20;15.03;;;3.60;99.90;;;;;;5036939;28;20437;-61
2022/01/22 03:10:49;;;;;;;17.90;15.40;;;3.60;99.90;;;;;;5036997;28;20467;-61
2022/01/22 03:16:28;;;;;;;16.27;14.50;;;3.60;99.90;;;;;;5013047;28;20718;-61
2022/01/22 03:19:01;;;;;;;20.60;15.83;;;3.70;99.90;;;;;;5037447;28;20463;-61
2022/01/22 03:21:37;;;;;;;18.60;16.57;;;3.70;99.90;;;;;;5036981;28;20589;-61
2022/01/22 03:29:37;;;;;;;22.03;16.97;;;3.70;99.90;;;;;;5056174;28;20943;-61
2022/01/22 03:32:10;;;;;;;20.17;16.87;;;3.70;99.90;;;;;;5054638;28;20474;-61
2022/01/22 03:34:42;;;;;;;23.17;17.67;;;3.80;99.90;;;;;;5056847;28;20552;-61
2022/01/22 03:37:09;;;;;;;21.00;16.63;;;3.70;99.90;;;;;;5055910;28;20466;-60
2022/01/22 03:39:36;;;;;;;21.43;17.63;;;3.80;99.90;;;;;;5048350;28;20973;-61
2022/01/22 03:42:05;;;;;;;19.97;17.50;;;3.70;99.90;;;;;;5036967;28;20531;-61
2022/01/22 03:44:32;;;;;;;21.50;18.97;;;3.70;99.90;;;;;;5037136;28;20466;-60
2022/01/22 03:46:59;;;;;;;20.20;17.03;;;3.70;99.90;;;;;;5040931;28;20582;-61
2022/01/22 03:49:26;;;;;;;21.77;19.10;;;3.70;99.90;;;;;;5056753;28;20470;-61
2022/01/22 03:51:53;;;;;;;20.60;17.70;;;3.80;99.90;;;;;;5056078;28;20469;-61
2022/01/22 03:54:20;;;;;;;19.93;17.07;;;3.80;99.90;;;;;;5056544;28;20465;-61
2022/01/22 03:56:48;;;;;;;21.77;18.43;;;3.80;99.90;;;;;;5056142;28;20437;-61
2022/01/22 03:59:16;;;;;;;21.00;17.87;;;3.80;99.90;;;;;;5054615;28;20488;-61
2022/01/22 04:04:30;;;;;;;21.63;17.60;;;3.80;99.90;;;;;;5056697;28;20434;-61
2022/01/22 04:09:53;;;;;;;22.60;17.90;;;3.80;99.90;;;;;;5059676;28;20453;-61
2022/01/22 04:12:27;;;;;;;20.80;18.00;;;3.80;99.90;;;;;;5059510;28;20486;-61
2022/01/22 04:15:00;;;;;;;23.40;19.10;;;3.80;99.90;;;;;;5060203;28;20465;-61
2022/01/22 04:24:48;;;;;;;23.17;19.63;;;3.90;99.90;;;;;;5059690;28;20531;-61
2022/01/22 04:25:50;;;;;;;24.00;20.07;;;3.80;99.90;;;;;;5039348;28;20478;-61
2022/01/22 04:28:17;;;;;;;24.57;21.30;;;3.80;99.90;;;;;;5039388;28;20467;-61
2022/01/22 04:30:46;;;;;;;25.50;20.27;;;3.80;99.90;;;;;;5050867;28;20458;-61
2022/01/22 04:33:13;;;;;;;23.00;19.37;;;3.90;99.90;;;;;;5057649;28;20569;-61
2022/01/22 04:35:40;;;;;;;25.27;20.43;;;3.80;99.90;;;;;;5064831;28;20457;-61
2022/01/22 04:38:07;;;;;;;26.57;20.90;;;3.80;99.90;;;;;;5079442;28;20465;-61
2022/01/22 04:40:34;;;;;;;24.80;20.70;;;3.80;99.90;;;;;;5067597;28;20520;-61
2022/01/22 04:43:03;;;;;;;26.30;20.53;;;3.80;99.90;;;;;;5059121;28;20459;-61
2022/01/22 04:45:44;;;;;;;25.20;20.37;;;3.80;99.90;;;;;;5057221;28;20466;-61
2022/01/22 04:48:26;;;;;;;24.87;20.40;;;3.80;99.90;;;;;;5059327;28;20494;-61
2022/01/22 04:56:22;;;;;;;23.03;18.47;;;3.90;99.90;;;;;;5039864;28;20946;-61
2022/01/22 04:58:49;;;;;;;23.63;20.17;;;3.90;99.90;;;;;;5039265;28;20530;-61
2022/01/22 05:01:16;;;;;;;26.07;20.47;;;3.90;99.90;;;;;;5045727;28;20899;-61
2022/01/22 05:03:44;;;;;;;26.13;20.77;;;3.90;99.90;;;;;;5058978;28;20454;-61
2022/01/22 05:06:14;;;;;;;23.90;19.80;;;4.00;99.90;;;;;;5056967;28;20448;-61
2022/01/22 05:08:41;;;;;;;25.83;20.67;;;3.90;99.90;;;;;;5059193;28;20440;-61
2022/01/22 05:11:08;;;;;;;24.10;18.33;;;4.00;99.90;;;;;;5054748;28;20443;-61
2022/01/22 05:13:37;;;;;;;26.90;21.67;;;4.00;99.90;;;;;;5038704;28;20962;-61
2022/01/22 05:16:04;;;;;;;28.20;20.80;;;4.00;99.90;;;;;;5046095;28;20543;-61
2022/01/22 05:18:37;;;;;;;25.50;18.40;;;4.00;99.90;;;;;;5058508;28;20525;-61
2022/01/22 05:21:10;;;;;;;26.70;19.73;;;4.00;99.90;;;;;;5058372;28;20508;-61
2022/01/22 05:23:38;;;;;;;24.13;20.30;;;4.00;99.90;;;;;;5038332;28;20509;-61
2022/01/22 05:26:11;;;;;;;30.13;20.70;;;4.00;99.90;;;;;;5038555;28;20923;-61
2022/01/22 05:31:34;;;;;;;23.53;19.00;;;4.00;99.90;;;;;;5037307;28;20887;-61
2022/01/22 05:36:59;;;;;;;24.83;18.40;;;4.00;99.90;;;;;;5061588;28;20454;-61
2022/01/22 05:39:28;;;;;;;23.13;18.70;;;4.00;99.90;;;;;;5037785;28;20466;-61
2022/01/22 05:41:56;;;;;;;24.47;18.90;;;4.00;99.90;;;;;;5038387;28;20798;-61
2022/01/22 05:44:24;;;;;;;28.23;19.10;;;4.10;99.90;;;;;;5055525;28;20745;-61
2022/01/22 05:46:53;;;;;;;26.57;19.23;;;4.10;99.90;;;;;;5055464;28;20500;-61
2022/01/22 05:49:22;;;;;;;24.87;19.27;;;4.10;99.90;;;;;;5038739;28;20490;-61
2022/01/22 05:51:52;;;;;;;25.70;19.37;;;4.10;99.90;;;;;;5037911;28;20471;-61
2022/01/22 05:54:47;;;;;;;25.70;20.10;;;4.20;99.90;;;;;;5050478;28;20511;-61
2022/01/22 05:59:58;;;;;;;28.13;21.30;;;4.20;99.90;;;;;;5057893;28;20728;-61
2022/01/22 06:02:26;;;;;;;27.33;19.77;;;4.20;99.90;;;;;;5058033;28;20520;-61
2022/01/22 06:04:53;;;;;;;27.47;18.80;;;4.20;99.90;;;;;;5046639;28;20564;-61
2022/01/22 06:07:22;;;;;;;25.33;18.90;;;4.20;99.90;;;;;;5062205;28;20790;-61
2022/01/22 06:10:05;;;;;;;28.00;19.00;;;4.20;99.90;;;;;;5064733;28;20936;-61
2022/01/22 06:12:44;;;;;;;25.97;19.07;;;4.20;99.90;;;;;;5067187;28;20432;-61
2022/01/22 06:15:14;;;;;;;28.40;20.30;;;4.20;99.90;;;;;;5066224;28;20440;-61
2022/01/22 06:17:41;;;;;;;26.30;18.67;;;4.20;99.90;;;;;;5063449;28;20475;-62
2022/01/22 06:20:12;;;;;;;25.53;19.50;;;4.30;99.90;;;;;;5062826;28;20489;-61
2022/01/22 06:22:41;;;;;;;27.83;20.70;;;4.20;99.90;;;;;;5067507;28;20497;-61
2022/01/22 06:25:09;;;;;;;26.97;21.37;;;4.30;99.90;;;;;;5061223;28;20461;-61
2022/01/22 06:27:37;;;;;;;28.93;20.43;;;4.30;99.90;;;;;;5066173;28;20558;-61
2022/01/22 06:30:06;;;;;;;30.83;20.03;;;4.30;99.90;;;;;;5064019;28;20543;-61
2022/01/22 06:32:33;;;;;;;31.03;21.93;;;4.30;99.90;;;;;;5067185;28;20457;-62
2022/01/22 06:35:00;;;;;;;30.77;22.30;;;4.30;99.90;;;;;;5062955;28;20428;-61
2022/01/22 06:37:27;;;;;;;35.73;23.70;;;4.40;99.90;;;;;;5067816;28;20432;-61
2022/01/22 06:42:45;;;;;;;33.67;22.50;;;4.30;99.90;;;;;;4991008;28;20409;-61
2022/01/22 06:45:12;;;;;;;34.33;22.73;;;4.30;99.90;;;;;;5064126;28;20941;-61
2022/01/22 06:47:40;;;;;;;34.30;23.73;;;4.40;99.90;;;;;;5062326;28;20459;-62
2022/01/22 06:50:07;;;;;;;33.50;24.50;;;4.40;99.90;;;;;;5062772;28;20511;-61
2022/01/22 06:52:39;;;;;;;30.47;21.20;;;4.30;99.90;;;;;;5067293;28;20460;-62
2022/01/22 06:55:11;;;;;;;27.50;20.33;;;4.30;99.90;;;;;;5064481;28;20552;-62
2022/01/22 06:57:38;;;;;;;28.67;19.30;;;4.30;99.90;;;;;;5063347;28;20439;-61
2022/01/22 07:00:06;;;;;;;30.03;21.77;;;4.40;99.90;;;;;;5065163;28;20489;-61
2022/01/22 07:02:33;;;;;;;29.10;20.40;;;4.40;99.90;;;;;;5071912;28;20485;-61
2022/01/22 07:05:00;;;;;;;28.63;20.73;;;4.40;99.90;;;;;;5066732;28;20432;-62
2022/01/22 07:07:27;;;;;;;24.30;17.73;;;4.50;99.90;;;;;;5072533;28;20454;-62
2022/01/22 07:09:54;;;;;;;22.90;17.00;;;4.50;99.90;;;;;;5062625;28;20465;-61
2022/01/22 07:12:22;;;;;;;22.40;17.80;;;4.40;99.90;;;;;;5071597;28;20509;-62
2022/01/22 07:14:49;;;;;;;23.67;18.10;;;4.40;99.90;;;;;;5071293;28;21018;-62
2022/01/22 07:17:17;;;;;;;23.90;17.70;;;4.40;99.90;;;;;;5067553;28;20457;-62
2022/01/22 07:19:47;;;;;;;25.33;17.27;;;4.50;99.90;;;;;;5071174;28;20894;-62
2022/01/22 07:22:34;;;;;;;20.97;15.73;;;4.40;99.90;;;;;;5069400;28;20497;-62
2022/01/22 07:25:01;;;;;;;23.30;17.17;;;4.50;99.90;;;;;;5065688;28;20461;-61
2022/01/22 07:27:29;;;;;;;25.77;17.10;;;4.50;99.90;;;;;;5068373;28;20790;-61
2022/01/22 07:29:56;;;;;;;26.73;16.70;;;4.50;99.90;;;;;;5071211;28;20457;-61
2022/01/22 07:32:31;;;;;;;25.00;18.20;;;4.40;99.90;;;;;;5071909;28;20493;-61
2022/01/22 07:34:58;;;;;;;28.47;20.90;;;4.50;99.90;;;;;;5064950;28;20485;-61
2022/01/22 07:37:25;;;;;;;26.27;18.30;;;4.50;99.90;;;;;;5067413;28;20840;-62
2022/01/22 07:39:52;;;;;;;30.40;21.33;;;4.50;99.90;;;;;;5071442;28;20518;-62
2022/01/22 07:42:19;;;;;;;31.27;20.90;;;4.50;99.90;;;;;;5072720;28;20466;-62
2022/01/22 07:44:47;;;;;;;27.50;19.63;;;4.50;99.90;;;;;;5075641;28;20479;-62
2022/01/22 07:47:14;;;;;;;29.50;21.30;;;4.60;99.90;;;;;;5070636;28;20458;-61
2022/01/22 07:49:41;;;;;;;30.70;22.47;;;4.60;99.90;;;;;;5074747;28;20453;-62
2022/01/22 07:52:09;;;;;;;33.47;20.80;;;4.60;99.90;;;;;;5070513;28;20498;-62
2022/01/22 07:54:36;;;;;;;29.97;20.60;;;4.60;99.90;;;;;;5068777;28;20576;-62
2022/01/22 07:57:04;;;;;;;29.93;22.87;;;4.60;99.90;;;;;;5068836;28;20958;-62
2022/01/22 07:59:32;;;;;;;37.93;22.70;;;4.60;99.90;;;;;;5069511;28;20864;-61
2022/01/22 08:02:02;;;;;;;36.37;25.97;;;4.60;99.90;;;;;;5064351;28;20473;-61
2022/01/22 08:04:29;;;;;;;30.40;21.60;;;4.60;99.90;;;;;;5066472;28;20450;-61
2022/01/22 08:07:01;;;;;;;41.00;25.30;;;4.70;99.90;;;;;;5068270;28;20544;-61
2022/01/22 08:09:29;;;;;;;37.67;23.70;;;4.60;99.90;;;;;;5062855;28;20461;-61
2022/01/22 08:11:57;;;;;;;32.47;23.93;;;4.70;99.90;;;;;;5068665;28;20441;-61
2022/01/22 08:14:24;;;;;;;37.07;22.10;;;4.70;99.90;;;;;;5065288;28;20477;-61
2022/01/22 08:16:50;;;;;;;32.47;22.23;;;4.80;99.90;;;;;;5064436;28;20466;-60
2022/01/22 08:19:19;;;;;;;36.83;24.57;;;4.80;99.90;;;;;;5065761;28;20462;-60
2022/01/22 08:21:50;;;;;;;37.90;23.33;;;4.80;99.90;;;;;;5067007;28;20544;-61
2022/01/22 08:24:21;;;;;;;36.07;22.03;;;4.80;99.90;;;;;;5056229;28;20458;-60
2022/01/22 08:26:53;;;;;;;32.80;22.37;;;4.80;99.90;;;;;;5065052;28;20440;-61
2022/01/22 08:29:23;;;;;;;34.63;23.10;;;4.90;99.90;;;;;;5063836;28;20470;-61
2022/01/22 08:32:02;;;;;;;33.90;22.47;;;4.90;99.90;;;;;;5057553;28;20469;-61
2022/01/22 08:37:15;;;;;;;34.40;23.23;;;4.90;99.90;;;;;;5067220;28;20496;-61
2022/01/22 08:39:43;;;;;;;29.50;19.37;;;4.90;99.90;;;;;;5065242;28;20510;-61
2022/01/22 08:42:10;;;;;;;29.67;20.30;;;4.80;99.90;;;;;;5067844;28;20465;-61
2022/01/22 08:44:37;;;;;;;27.83;19.50;;;4.90;99.90;;;;;;5065597;28;20463;-61
2022/01/22 08:47:06;;;;;;;28.67;20.13;;;4.90;99.90;;;;;;5076430;28;20878;-61
2022/01/22 08:49:37;;;;;;;27.37;20.23;;;5.00;99.90;;;;;;5071826;28;20530;-61
2022/01/22 08:52:09;;;;;;;28.70;20.40;;;5.00;99.90;;;;;;5069224;28;20516;-61
2022/01/22 08:54:36;;;;;;;26.07;17.90;;;5.00;99.90;;;;;;5062910;28;20576;-61
2022/01/22 08:57:04;;;;;;;26.63;18.77;;;5.00;99.90;;;;;;5068859;28;20814;-61
2022/01/22 08:59:31;;;;;;;25.00;18.30;;;5.10;99.90;;;;;;5065256;28;20454;-61
2022/01/22 09:02:03;;;;;;;30.50;21.37;;;5.10;99.90;;;;;;5068591;28;20499;-61
2022/01/22 09:04:31;;;;;;;27.67;19.13;;;5.20;99.90;;;;;;5069514;28;20453;-61
2022/01/22 09:06:59;;;;;;;29.93;20.60;;;5.20;99.90;;;;;;5066202;28;20836;-61
2022/01/22 09:09:27;;;;;;;27.00;18.50;;;5.20;99.90;;;;;;5065159;28;20463;-61
2022/01/22 09:11:54;;;;;;;26.67;19.73;;;5.20;99.90;;;;;;5055014;28;20908;-61
2022/01/22 09:14:22;;;;;;;28.17;18.57;;;5.20;99.90;;;;;;5058060;28;20492;-61
2022/01/22 09:16:51;;;;;;;25.73;18.67;;;5.30;99.90;;;;;;5056032;28;20437;-61
2022/01/22 09:19:18;;;;;;;26.37;18.33;;;5.20;99.90;;;;;;5057794;28;20773;-61
2022/01/22 09:21:48;;;;;;;24.47;18.23;;;5.20;99.90;;;;;;5057075;28;20991;-61
2022/01/22 09:24:17;;;;;;;23.77;17.93;;;5.20;99.90;;;;;;5057721;28;20519;-61
2022/01/22 09:26:45;;;;;;;27.20;20.30;;;5.30;99.90;;;;;;5056438;28;20545;-61
2022/01/22 09:29:12;;;;;;;30.73;22.70;;;5.10;99.90;;;;;;5056531;28;20767;-61
2022/01/22 09:31:42;;;;;;;29.60;20.37;;;5.30;99.90;;;;;;5051915;28;20462;-61
2022/01/22 09:34:09;;;;;;;31.77;22.13;;;5.30;99.90;;;;;;5056354;28;20490;-61
2022/01/22 09:36:37;;;;;;;31.37;20.20;;;5.20;99.90;;;;;;5052613;28;20437;-61
2022/01/22 09:39:05;;;;;;;30.90;21.93;;;5.30;99.90;;;;;;5055799;28;20479;-61
2022/01/22 09:41:36;;;;;;;32.23;22.60;;;5.30;99.90;;;;;;5055249;28;20482;-61
2022/01/22 09:44:06;;;;;;;36.07;22.43;;;5.30;99.90;;;;;;5057194;28;20485;-62
2022/01/22 09:46:33;;;;;;;36.00;23.70;;;5.30;99.90;;;;;;5063232;28;20486;-61
2022/01/22 09:49:01;;;;;;;36.17;24.73;;;5.40;99.90;;;;;;5064258;28;20770;-61
2022/01/22 09:51:30;;;;;;;34.60;23.63;;;5.40;99.90;;;;;;5066057;28;20457;-61
2022/01/22 09:53:57;;;;;;;39.50;24.00;;;5.50;99.90;;;;;;5065986;28;20490;-60
2022/01/22 09:56:27;;;;;;;34.97;24.20;;;5.50;99.90;;;;;;5063297;28;20799;-58
2022/01/22 09:58:56;;;;;;;38.47;26.37;;;5.50;99.90;;;;;;5053985;28;20472;-58
2022/01/22 10:01:25;;;;;;;43.23;25.70;;;5.50;99.90;;;;;;5054818;28;20462;-58
2022/01/22 10:03:55;;;;;;;39.07;26.10;;;5.60;99.90;;;;;;5055608;28;20464;-59
2022/01/22 10:06:23;;;;;;;36.50;25.20;;;5.60;99.90;;;;;;5057005;28;20975;-57
2022/01/22 10:08:54;;;;;;;39.30;26.97;;;5.60;99.90;;;;;;5056320;28;20467;-60
2022/01/22 10:11:25;;;;;;;37.37;25.87;;;5.50;99.90;;;;;;5050757;28;20896;-58
2022/01/22 10:13:53;;;;;;;35.97;23.13;;;5.40;99.90;;;;;;5036705;28;20879;-59
2022/01/22 10:16:26;;;;;;;35.57;24.10;;;5.50;99.90;;;;;;5048204;28;20512;-56
2022/01/22 10:19:18;;;;;;;38.60;25.30;;;5.50;99.90;;;;;;5057715;28;20490;-59
2022/01/22 10:21:47;;;;;;;37.57;25.67;;;5.50;99.90;;;;;;5055625;28;20574;-58
2022/01/22 10:24:34;;;;;;;41.93;26.27;;;5.40;99.90;;;;;;5057491;28;20433;-56
2022/01/22 10:27:29;;;;;;;40.67;26.30;;;5.50;99.90;;;;;;5054346;28;20458;-58
2022/01/22 10:29:58;;;;;;;33.90;23.47;;;5.50;99.90;;;;;;5057888;28;20494;-59
2022/01/22 10:32:38;;;;;;;39.43;26.70;;;5.50;99.90;;;;;;5054599;28;20556;-59
2022/01/22 10:35:15;;;;;;;36.23;23.37;;;5.50;99.90;;;;;;5057968;28;20529;-60
2022/01/22 10:37:44;;;;;;;30.93;22.27;;;5.50;99.90;;;;;;5054058;28;20466;-60
2022/01/22 10:40:27;;;;;;;24.20;17.30;;;5.50;99.90;;;;;;5041960;28;20536;-57
2022/01/22 10:43:21;;;;;;;25.87;17.97;;;5.50;99.90;;;;;;5057386;28;20508;-60
2022/01/22 10:46:10;;;;;;;22.80;17.10;;;5.50;99.90;;;;;;5042497;28;20459;-60
2022/01/22 10:48:41;;;;;;;23.67;18.00;;;5.50;99.90;;;;;;5037771;28;20958;-59
2022/01/22 10:51:11;;;;;;;23.70;17.53;;;5.50;99.90;;;;;;5038236;28;20466;-59
2022/01/22 10:53:42;;;;;;;26.47;19.20;;;5.40;99.90;;;;;;5037187;28;20486;-58
2022/01/22 10:56:09;;;;;;;26.77;20.07;;;5.40;99.90;;;;;;5053483;28;21013;-59
2022/01/22 10:58:47;;;;;;;30.00;21.33;;;5.40;99.90;;;;;;5053506;28;20462;-57
2022/01/22 11:01:17;;;;;;;29.87;20.10;;;5.40;99.90;;;;;;5053528;28;20505;-58
2022/01/22 11:03:46;;;;;;;30.23;20.70;;;5.30;99.90;;;;;;5050981;28;20464;-61
2022/01/22 11:06:26;;;;;;;25.70;19.83;;;5.40;99.90;;;;;;5057047;28;20752;-61
2022/01/22 11:08:53;;;;;;;32.47;22.10;;;5.40;99.90;;;;;;5056808;28;20837;-60
2022/01/22 11:11:23;;;;;;;25.83;18.57;;;5.40;99.90;;;;;;5048032;28;20527;-64
2022/01/22 11:13:50;;;;;;;32.10;21.83;;;5.40;99.90;;;;;;5046346;28;20640;-60
2022/01/22 11:16:21;;;;;;;28.83;21.17;;;5.40;99.90;;;;;;5059269;28;20521;-58
2022/01/22 11:18:54;;;;;;;27.57;19.27;;;5.40;99.90;;;;;;5056989;28;20458;-57
2022/01/22 11:21:24;;;;;;;31.90;22.00;;;5.40;99.90;;;;;;5056081;28;20559;-59
2022/01/22 11:23:57;;;;;;;35.47;24.37;;;5.40;99.90;;;;;;5059812;28;20765;-60
2022/01/22 11:26:25;;;;;;;36.83;23.63;;;5.30;99.90;;;;;;5049319;28;20458;-55
2022/01/22 11:28:54;;;;;;;38.10;24.63;;;5.40;99.90;;;;;;5049549;28;20459;-60
2022/01/22 11:31:24;;;;;;;35.97;24.70;;;5.40;99.90;;;;;;5049284;28;20465;-60
2022/01/22 11:33:56;;;;;;;36.10;24.07;;;5.40;99.90;;;;;;5051208;28;20494;-60
2022/01/22 11:36:28;;;;;;;35.40;24.00;;;5.50;99.90;;;;;;5047456;28;20518;-60
2022/01/22 11:38:57;;;;;;;36.30;23.90;;;5.40;99.90;;;;;;5060658;28;20454;-59
2022/01/22 11:41:25;;;;;;;38.40;26.60;;;5.30;99.90;;;;;;5053632;28;20541;-56
2022/01/22 11:44:07;;;;;;;39.07;25.97;;;5.40;99.90;;;;;;5059785;28;20512;-60
2022/01/22 11:46:37;;;;;;;35.10;24.50;;;5.40;99.90;;;;;;5059791;28;20461;-60
2022/01/22 11:49:25;;;;;;;38.20;25.20;;;5.50;99.90;;;;;;5054951;28;20452;-59
2022/01/22 11:51:54;;;;;;;35.30;23.07;;;5.60;99.90;;;;;;5055269;28;20464;-56
2022/01/22 11:54:24;;;;;;;34.30;22.57;;;5.60;99.90;;;;;;5068436;28;20485;-57
2022/01/22 11:56:53;;;;;;;32.13;20.47;;;5.60;99.90;;;;;;5063230;28;20469;-57
2022/01/22 11:59:32;;;;;;;27.10;19.37;;;5.60;99.90;;;;;;5062880;28;20559;-58
2022/01/22 12:02:07;;;;;;;26.67;18.33;;;5.70;99.90;;;;;;5058847;28;21027;-52
2022/01/22 12:05:02;;;;;;;23.23;17.10;;;5.70;99.90;;;;;;5068721;28;20454;-58
2022/01/22 12:07:35;;;;;;;27.80;19.40;;;5.70;99.90;;;;;;5057857;28;20552;-59
2022/01/22 12:16:11;;;;;;;33.73;21.57;;;5.60;99.90;;;;;;5058082;28;20498;-58
2022/01/22 12:18:43;;;;;;;32.40;21.80;;;5.60;99.90;;;;;;5050401;28;20433;-60
2022/01/22 12:24:14;;;;;;;20.70;14.90;;;5.60;99.90;;;;;;5088807;27;20976;-60
2022/01/22 12:26:54;;;;;;;18.07;12.23;;;5.50;99.90;;;;;;5067387;28;20460;-60
2022/01/22 12:29:39;;;;;;;18.23;12.13;;;5.50;99.90;;;;;;5068204;28;20444;-58
2022/01/22 12:32:25;;;;;;;18.37;12.53;;;5.50;99.90;;;;;;5071007;28;20785;-60
2022/01/22 12:35:14;;;;;;;15.90;11.33;;;5.40;99.90;;;;;;5073176;28;20461;-61
2022/01/22 12:37:46;;;;;;;13.83;10.43;;;5.50;99.90;;;;;;5069868;28;20454;-61
2022/01/22 12:40:37;;;;;;;18.33;10.67;;;5.50;99.90;;;;;;5071421;28;20907;-59
2022/01/22 12:43:09;;;;;;;21.50;11.23;;;5.50;99.90;;;;;;5071119;28;20489;-60
2022/01/22 12:45:38;;;;;;;15.07;11.47;;;5.50;99.90;;;;;;5070523;28;20454;-60
2022/01/22 12:48:06;;;;;;;15.90;12.10;;;5.50;99.90;;;;;;5072472;28;20739;-60
2022/01/22 12:50:37;;;;;;;22.30;13.73;;;5.50;99.90;;;;;;5073550;28;20468;-61
2022/01/22 12:53:17;;;;;;;19.07;13.87;;;5.60;99.90;;;;;;5074007;28;20981;-60
2022/01/22 12:58:37;;;;;;;31.90;15.93;;;5.50;99.90;;;;;;5073116;28;20443;-61
2022/01/22 13:01:23;;;;;;;21.67;16.63;;;5.60;99.90;;;;;;5072733;28;20960;-59
2022/01/22 13:03:52;;;;;;;26.17;18.77;;;5.60;99.90;;;;;;5073534;28;20542;-58
2022/01/22 13:06:25;;;;;;;30.10;18.27;;;5.50;99.90;;;;;;5074017;28;20510;-60
2022/01/22 13:08:59;;;;;;;24.30;18.53;;;5.40;99.90;;;;;;5073729;28;20946;-60
2022/01/22 13:11:29;;;;;;;29.00;20.10;;;5.50;99.90;;;;;;5071296;28;20466;-58
2022/01/22 13:13:57;;;;;;;27.10;18.23;;;5.50;99.90;;;;;;5071543;28;20424;-60
2022/01/22 13:16:24;;;;;;;28.10;19.83;;;5.50;99.90;;;;;;5072023;28;20473;-60
2022/01/22 13:18:56;;;;;;;29.33;20.50;;;5.50;99.90;;;;;;5072579;28;20460;-59
2022/01/22 13:21:25;;;;;;;30.83;20.20;;;5.50;99.90;;;;;;5072470;28;20465;-60
2022/01/22 13:24:01;;;;;;;26.07;18.80;;;5.50;99.90;;;;;;5053395;28;20501;-60
2022/01/22 13:26:53;;;;;;;30.70;19.47;;;5.50;99.90;;;;;;5070195;28;20518;-59
2022/01/22 13:29:23;;;;;;;30.10;19.30;;;5.50;99.90;;;;;;5072755;28;20519;-59
2022/01/22 13:32:15;;;;;;;26.73;20.27;;;5.50;99.90;;;;;;5072747;28;20462;-57
2022/01/22 13:35:02;;;;;;;23.60;17.40;;;5.40;99.90;;;;;;5046371;28;20524;-60
2022/01/22 13:48:55;;;;;;;20.57;15.80;;;5.40;99.90;;;;;;5034578;28;20751;-56
2022/01/22 13:51:23;;;;;;;23.97;16.80;;;5.40;99.90;;;;;;5068201;28;20823;-60
2022/01/22 13:53:50;;;;;;;23.37;17.13;;;5.40;99.90;;;;;;5058819;28;20461;-56
2022/01/22 13:56:18;;;;;;;21.60;16.57;;;5.40;99.90;;;;;;5059529;28;20869;-58
2022/01/22 13:58:46;;;;;;;19.70;15.67;;;5.40;99.90;;;;;;5059479;28;20472;-59
2022/01/22 14:01:31;;;;;;;21.67;16.13;;;5.40;99.90;;;;;;5059516;28;20485;-60
2022/01/22 14:04:09;;;;;;;22.10;16.77;;;5.40;99.90;;;;;;5058528;28;20490;-60
2022/01/22 14:06:36;;;;;;;20.33;14.90;;;5.50;99.90;;;;;;5058734;28;20523;-59
2022/01/22 14:09:13;;;;;;;21.63;14.63;;;5.40;99.90;;;;;;5056871;28;20474;-58
2022/01/22 14:12:12;;;;;;;18.57;14.60;;;5.40;99.90;;;;;;5048856;28;20467;-57
2022/01/22 14:15:01;;;;;;;17.90;14.60;;;5.50;99.90;;;;;;5048017;28;20902;-57
2022/01/22 14:17:38;;;;;;;16.57;13.63;;;5.50;99.90;;;;;;5046018;28;20462;-60
2022/01/22 14:20:08;;;;;;;23.57;14.40;;;5.40;99.90;;;;;;5057347;28;20461;-58
2022/01/22 14:23:06;;;;;;;22.70;16.50;;;5.50;99.90;;;;;;5049757;28;20596;-57
2022/01/22 14:25:36;;;;;;;20.37;16.27;;;5.50;99.90;;;;;;4977650;28;20436;-57